Time;durP1;ratioP1;P1;durP2;ratioP2;P2;SDS_P1;SDS_P2;PMS_P1;PMS_P2;Temp;Humidity;BMP_temperature;BMP_pressure;BME280_temperature;BME280_humidity;BME280_pressure;Samples;Min_cycle;Max_cycle;Signal;HPM_P1;HPM_P2
2022/07/16 00:01:22;;;;;;;3.40;2.20;;;;;;;;;;5115680;28;20599;-75
2022/07/16 00:01:49;;;;;;;4.43;2.53;;;;;;;;;;5114977;28;20201;-74
2022/07/16 00:04:18;;;;;;;3.90;2.70;;;;;;;;;;5115180;28;20196;-75
2022/07/16 00:06:45;;;;;;;4.00;2.43;;;;;;;;;;5115504;28;20293;-75
2022/07/16 00:09:12;;;;;;;3.60;2.60;;;;;;;;;;5115187;28;20654;-74
2022/07/16 00:11:39;;;;;;;3.80;2.57;;;;;;;;;;5115683;28;20285;-74
2022/07/16 00:14:07;;;;;;;3.97;2.60;;;;;;;;;;5114864;28;20308;-75
2022/07/16 00:16:34;;;;;;;3.77;2.50;;;;;;;;;;5114631;28;20229;-75
2022/07/16 00:19:18;;;;;;;5.40;2.40;;;;;;;;;;5115849;28;20289;-75
2022/07/16 00:21:47;;;;;;;5.20;2.30;;;;;;;;;;5115924;28;20288;-75
2022/07/16 00:24:15;;;;;;;4.40;2.70;;;;;;;;;;5115975;28;20249;-75
2022/07/16 00:26:43;;;;;;;4.00;1.90;;;;;;;;;;5115953;28;20276;-74
2022/07/16 00:29:10;;;;;;;2.40;1.90;;;;;;;;;;5115755;28;20229;-74
2022/07/16 00:31:37;;;;;;;4.33;2.20;;;;;;;;;;5115402;28;20194;-74
2022/07/16 00:34:06;;;;;;;4.53;2.50;;;;;;;;;;5115594;28;20218;-74
2022/07/16 00:36:33;;;;;;;5.67;2.47;;;;;;;;;;5114450;28;20197;-75
2022/07/16 00:39:02;;;;;;;8.10;2.50;;;;;;;;;;5115218;28;20198;-75
2022/07/16 00:41:29;;;;;;;4.03;2.50;;;;;;;;;;5115028;28;20320;-74
2022/07/16 00:43:59;;;;;;;6.10;2.47;;;;;;;;;;5115098;27;20319;-75
2022/07/16 00:46:26;;;;;;;3.70;2.20;;;;;;;;;;5115124;28;20225;-74
2022/07/16 00:48:53;;;;;;;5.03;2.40;;;;;;;;;;5115435;27;20202;-74
2022/07/16 00:51:22;;;;;;;4.20;2.20;;;;;;;;;;5114787;28;20272;-74
2022/07/16 00:53:49;;;;;;;3.50;2.20;;;;;;;;;;5114628;28;20221;-74
2022/07/16 00:56:18;;;;;;;3.93;2.00;;;;;;;;;;5115161;28;20230;-75
2022/07/16 00:58:48;;;;;;;4.70;2.10;;;;;;;;;;5114440;28;20202;-75
2022/07/16 01:01:16;;;;;;;4.10;2.30;;;;;;;;;;5113776;28;20285;-74
2022/07/16 01:03:44;;;;;;;4.90;2.13;;;;;;;;;;5115275;28;20285;-74
2022/07/16 01:06:12;;;;;;;3.90;2.10;;;;;;;;;;5114922;28;20201;-74
2022/07/16 01:08:40;;;;;;;8.33;2.30;;;;;;;;;;5114973;28;20229;-74
2022/07/16 01:11:08;;;;;;;4.27;2.30;;;;;;;;;;5114826;28;20251;-74
2022/07/16 01:13:39;;;;;;;5.93;2.60;;;;;;;;;;5114639;28;20308;-74
2022/07/16 01:16:07;;;;;;;3.50;2.17;;;;;;;;;;5114323;28;20248;-74
2022/07/16 01:18:34;;;;;;;4.53;2.07;;;;;;;;;;5114240;28;20202;-74
2022/07/16 01:21:01;;;;;;;5.13;2.30;;;;;;;;;;5113769;28;20292;-75
2022/07/16 01:23:30;;;;;;;4.77;2.13;;;;;;;;;;5113546;28;20552;-74
2022/07/16 01:25:57;;;;;;;3.03;2.10;;;;;;;;;;5114448;28;20197;-74
2022/07/16 01:28:24;;;;;;;5.07;2.10;;;;;;;;;;5114244;28;20284;-74
2022/07/16 01:30:52;;;;;;;5.67;2.10;;;;;;;;;;5114899;28;20285;-74
2022/07/16 01:33:20;;;;;;;6.00;2.30;;;;;;;;;;5114059;27;20313;-74
2022/07/16 01:35:47;;;;;;;4.73;2.00;;;;;;;;;;5114667;28;20204;-74
2022/07/16 01:38:14;;;;;;;3.57;2.07;;;;;;;;;;5114183;28;20665;-74
2022/07/16 01:40:43;;;;;;;2.47;2.03;;;;;;;;;;5114207;28;20236;-74
2022/07/16 01:43:13;;;;;;;3.03;1.93;;;;;;;;;;5107555;27;20225;-75
2022/07/16 01:45:41;;;;;;;2.37;1.90;;;;;;;;;;5106471;28;20252;-74
2022/07/16 01:48:08;;;;;;;5.27;2.17;;;;;;;;;;5114085;28;20231;-74
2022/07/16 01:50:36;;;;;;;5.63;2.40;;;;;;;;;;5113518;28;20253;-74
2022/07/16 01:53:03;;;;;;;4.87;2.20;;;;;;;;;;5113741;28;20218;-74
2022/07/16 01:55:30;;;;;;;4.77;2.40;;;;;;;;;;5113972;28;20365;-74
2022/07/16 01:57:59;;;;;;;4.10;2.50;;;;;;;;;;5113330;28;20241;-75
2022/07/16 02:00:27;;;;;;;2.87;2.10;;;;;;;;;;5093332;28;20294;-74
2022/07/16 02:02:54;;;;;;;2.67;2.00;;;;;;;;;;5093480;28;20229;-74
2022/07/16 02:05:21;;;;;;;5.77;2.20;;;;;;;;;;5092979;28;20241;-75
2022/07/16 02:07:49;;;;;;;4.57;2.50;;;;;;;;;;5093459;28;20206;-75
2022/07/16 02:10:16;;;;;;;6.70;2.43;;;;;;;;;;5093431;28;20233;-74
2022/07/16 02:12:43;;;;;;;4.83;2.17;;;;;;;;;;5107296;28;20280;-75
2022/07/16 02:15:12;;;;;;;3.87;2.00;;;;;;;;;;5113158;28;20292;-74
2022/07/16 02:17:39;;;;;;;5.00;2.30;;;;;;;;;;5113003;28;20228;-75
2022/07/16 02:20:08;;;;;;;3.60;2.70;;;;;;;;;;5112816;28;20720;-74
2022/07/16 02:22:35;;;;;;;3.97;2.37;;;;;;;;;;5112545;27;20639;-75
2022/07/16 02:25:05;;;;;;;3.73;2.13;;;;;;;;;;5113347;28;20285;-74
2022/07/16 02:27:32;;;;;;;5.73;1.97;;;;;;;;;;5112163;28;20247;-75
2022/07/16 02:29:59;;;;;;;5.10;2.43;;;;;;;;;;5113344;28;20285;-75
2022/07/16 02:32:28;;;;;;;3.33;2.40;;;;;;;;;;5113162;28;20805;-74
2022/07/16 02:34:56;;;;;;;4.37;2.63;;;;;;;;;;5112756;28;20245;-74
2022/07/16 02:37:23;;;;;;;3.20;2.07;;;;;;;;;;5113467;28;20284;-74
2022/07/16 02:39:50;;;;;;;3.50;2.50;;;;;;;;;;5112048;28;20229;-74
2022/07/16 02:42:17;;;;;;;4.97;2.53;;;;;;;;;;5112574;28;20232;-74
2022/07/16 02:44:44;;;;;;;4.90;2.30;;;;;;;;;;5112714;28;20201;-74
2022/07/16 02:47:12;;;;;;;3.90;2.33;;;;;;;;;;5112467;28;20654;-75
2022/07/16 02:49:40;;;;;;;4.17;2.40;;;;;;;;;;5113491;28;20229;-74
2022/07/16 02:52:07;;;;;;;4.23;2.30;;;;;;;;;;5111114;28;20308;-75
2022/07/16 02:54:35;;;;;;;4.70;2.40;;;;;;;;;;5110430;28;20268;-75
2022/07/16 02:57:02;;;;;;;4.73;2.43;;;;;;;;;;5111541;28;20280;-74
2022/07/16 02:59:29;;;;;;;2.90;2.20;;;;;;;;;;5111008;28;20290;-75
2022/07/16 03:01:56;;;;;;;3.47;2.50;;;;;;;;;;5111777;28;20233;-75
2022/07/16 03:04:23;;;;;;;4.83;2.33;;;;;;;;;;5112377;28;20236;-75
2022/07/16 03:06:52;;;;;;;4.00;2.17;;;;;;;;;;5112565;28;20259;-74
2022/07/16 03:09:19;;;;;;;4.10;2.60;;;;;;;;;;5111893;28;20627;-75
2022/07/16 03:11:47;;;;;;;5.90;2.50;;;;;;;;;;5112405;28;20229;-74
2022/07/16 03:14:14;;;;;;;2.77;2.20;;;;;;;;;;5111652;28;20253;-75
2022/07/16 03:16:41;;;;;;;4.67;2.60;;;;;;;;;;5112010;28;20202;-74
2022/07/16 03:19:08;;;;;;;4.93;2.73;;;;;;;;;;5108898;28;20284;-75
2022/07/16 03:21:35;;;;;;;5.07;2.50;;;;;;;;;;5111252;28;20276;-74
2022/07/16 03:24:04;;;;;;;4.23;2.13;;;;;;;;;;5103680;28;20282;-74
2022/07/16 03:26:31;;;;;;;3.97;2.40;;;;;;;;;;5113751;28;20232;-74
2022/07/16 03:28:58;;;;;;;3.07;2.10;;;;;;;;;;5116567;28;20220;-74
2022/07/16 03:31:26;;;;;;;7.80;2.80;;;;;;;;;;5116484;28;20201;-74
2022/07/16 03:33:53;;;;;;;4.90;2.10;;;;;;;;;;5116248;28;20779;-74
2022/07/16 03:36:21;;;;;;;5.83;2.93;;;;;;;;;;5116793;28;20202;-74
2022/07/16 03:39:02;;;;;;;3.47;2.57;;;;;;;;;;5115648;28;20202;-74
2022/07/16 03:41:31;;;;;;;3.17;2.37;;;;;;;;;;5116105;28;20614;-74
2022/07/16 03:43:59;;;;;;;3.87;2.50;;;;;;;;;;5116328;28;20228;-74
2022/07/16 03:46:26;;;;;;;3.53;2.10;;;;;;;;;;5116051;28;20233;-74
2022/07/16 03:48:53;;;;;;;6.17;2.90;;;;;;;;;;5115514;28;20301;-74
2022/07/16 03:51:20;;;;;;;3.63;2.30;;;;;;;;;;5115568;28;20713;-74
2022/07/16 03:53:48;;;;;;;3.20;2.10;;;;;;;;;;5115356;28;20398;-75
2022/07/16 03:56:15;;;;;;;7.60;2.70;;;;;;;;;;5115668;28;20297;-75
2022/07/16 03:58:43;;;;;;;4.97;2.53;;;;;;;;;;5115441;28;20237;-74
2022/07/16 04:01:11;;;;;;;5.43;2.40;;;;;;;;;;5115693;28;20277;-75
2022/07/16 04:03:38;;;;;;;4.20;2.77;;;;;;;;;;5115784;28;20673;-74
2022/07/16 04:06:06;;;;;;;4.40;2.43;;;;;;;;;;5115412;28;20238;-74
2022/07/16 04:08:33;;;;;;;4.60;2.77;;;;;;;;;;5115268;28;20198;-75
2022/07/16 04:11:01;;;;;;;5.03;2.43;;;;;;;;;;5116247;28;20217;-75
2022/07/16 04:13:29;;;;;;;4.57;2.80;;;;;;;;;;5116140;28;20240;-74
2022/07/16 04:15:57;;;;;;;3.53;2.40;;;;;;;;;;5115557;28;20236;-74
2022/07/16 04:18:24;;;;;;;3.70;2.17;;;;;;;;;;5115876;28;20262;-75
2022/07/16 04:20:51;;;;;;;4.73;2.60;;;;;;;;;;5115752;28;20277;-74
2022/07/16 04:23:19;;;;;;;4.30;2.53;;;;;;;;;;5114015;28;20244;-74
2022/07/16 04:25:47;;;;;;;5.00;2.30;;;;;;;;;;5115559;28;20197;-74
2022/07/16 04:28:14;;;;;;;4.27;2.53;;;;;;;;;;5115485;28;20225;-74
2022/07/16 04:30:41;;;;;;;6.03;2.60;;;;;;;;;;5115351;28;20240;-75
2022/07/16 04:33:10;;;;;;;4.07;2.33;;;;;;;;;;5115618;28;20233;-74
2022/07/16 04:35:37;;;;;;;6.50;2.67;;;;;;;;;;5115450;28;20257;-75
2022/07/16 04:38:04;;;;;;;6.00;2.53;;;;;;;;;;5114188;28;20225;-75
2022/07/16 04:40:32;;;;;;;4.53;2.57;;;;;;;;;;5114856;28;20288;-75
2022/07/16 04:42:59;;;;;;;4.07;2.33;;;;;;;;;;5115230;28;20197;-74
2022/07/16 04:45:26;;;;;;;4.00;2.60;;;;;;;;;;5114878;28;20281;-74
2022/07/16 04:47:53;;;;;;;3.90;2.30;;;;;;;;;;5115158;28;20194;-74
2022/07/16 04:50:22;;;;;;;4.60;2.30;;;;;;;;;;5114877;28;20739;-74
2022/07/16 04:52:49;;;;;;;4.40;2.40;;;;;;;;;;5114251;28;20272;-74
2022/07/16 04:55:16;;;;;;;4.27;2.43;;;;;;;;;;5115256;28;20312;-74
2022/07/16 04:57:43;;;;;;;4.87;2.43;;;;;;;;;;5115126;28;20597;-74
2022/07/16 05:00:11;;;;;;;5.77;2.33;;;;;;;;;;5114848;28;20225;-74
2022/07/16 05:05:24;;;;;;;6.67;2.37;;;;;;;;;;5115079;28;20200;-74
2022/07/16 05:07:51;;;;;;;3.87;2.30;;;;;;;;;;5114909;28;20232;-75
2022/07/16 05:10:19;;;;;;;5.13;2.37;;;;;;;;;;5114633;28;20241;-74
2022/07/16 05:12:46;;;;;;;2.97;2.23;;;;;;;;;;5114559;28;20237;-74
2022/07/16 05:15:13;;;;;;;5.17;2.20;;;;;;;;;;5114226;28;20249;-75
2022/07/16 05:17:40;;;;;;;3.20;2.23;;;;;;;;;;5114910;27;20238;-75
2022/07/16 05:20:09;;;;;;;6.77;2.37;;;;;;;;;;5113235;28;20707;-74
2022/07/16 05:22:37;;;;;;;3.07;2.30;;;;;;;;;;5114045;28;20198;-74
2022/07/16 05:25:05;;;;;;;6.40;2.27;;;;;;;;;;5113951;28;20198;-75
2022/07/16 05:27:32;;;;;;;3.10;2.27;;;;;;;;;;5114393;28;20605;-75
2022/07/16 05:29:59;;;;;;;5.80;2.27;;;;;;;;;;5113799;28;20223;-75
2022/07/16 05:32:27;;;;;;;2.90;2.33;;;;;;;;;;5114527;28;20695;-75
2022/07/16 05:34:54;;;;;;;5.27;2.30;;;;;;;;;;5113895;28;20268;-74
2022/07/16 05:37:21;;;;;;;3.60;2.23;;;;;;;;;;5113934;28;20229;-75
2022/07/16 05:39:50;;;;;;;2.77;2.27;;;;;;;;;;5114445;28;20237;-75
2022/07/16 05:42:17;;;;;;;3.67;2.17;;;;;;;;;;5113883;28;20264;-75
2022/07/16 05:44:44;;;;;;;4.33;2.00;;;;;;;;;;5113740;28;20274;-74
2022/07/16 05:47:11;;;;;;;4.23;2.40;;;;;;;;;;5114063;28;20300;-75
2022/07/16 05:49:38;;;;;;;4.20;2.23;;;;;;;;;;5113797;28;20746;-75
2022/07/16 05:52:06;;;;;;;2.43;2.20;;;;;;;;;;5113522;28;20272;-75
2022/07/16 05:54:33;;;;;;;2.73;1.73;;;;;;;;;;5113542;28;20329;-75
2022/07/16 05:57:02;;;;;;;3.08;1.92;;;;;;;;;;5113855;28;20284;-75
2022/07/16 05:59:29;;;;;;;4.20;1.90;;;;;;;;;;5113790;28;20293;-75
2022/07/16 06:01:56;;;;;;;2.58;1.88;;;;;;;;;;5113594;28;20240;-75
2022/07/16 06:04:23;;;;;;;7.35;2.10;;;;;;;;;;5113274;28;20620;-74
2022/07/16 06:06:50;;;;;;;5.70;1.90;;;;;;;;;;5114070;28;20623;-75
2022/07/16 06:09:17;;;;;;;3.20;1.75;;;;;;;;;;5114154;27;20233;-75
2022/07/16 06:11:46;;;;;;;2.50;1.90;;;;;;;;;;5113431;28;20229;-75
2022/07/16 06:14:14;;;;;;;2.22;1.60;;;;;;;;;;5113899;28;20231;-75
2022/07/16 06:16:42;;;;;;;1.95;1.67;;;;;;;;;;5113605;28;20197;-75
2022/07/16 06:19:09;;;;;;;3.35;1.70;;;;;;;;;;5113215;28;20625;-75
2022/07/16 06:21:37;;;;;;;4.15;2.05;;;;;;;;;;5113054;28;20233;-75
2022/07/16 06:24:04;;;;;;;2.97;1.88;;;;;;;;;;5113021;28;20252;-75
2022/07/16 06:26:31;;;;;;;2.97;1.88;;;;;;;;;;5112855;28;20713;-75
2022/07/16 06:28:59;;;;;;;2.83;1.70;;;;;;;;;;5113654;28;20616;-75
2022/07/16 06:31:27;;;;;;;3.83;1.90;;;;;;;;;;5113474;28;20244;-75
2022/07/16 06:33:55;;;;;;;2.35;1.63;;;;;;;;;;5112857;28;20229;-76
2022/07/16 06:36:22;;;;;;;3.60;1.70;;;;;;;;;;5113030;28;20240;-75
2022/07/16 06:38:49;;;;;;;4.38;1.60;;;;;;;;;;5112969;28;20289;-75
2022/07/16 06:41:17;;;;;;;3.10;1.83;;;;;;;;;;5112252;28;20274;-75
2022/07/16 06:43:45;;;;;;;2.90;1.50;;;;;;;;;;5113472;28;20198;-75
2022/07/16 06:46:12;;;;;;;2.42;1.42;;;;;;;;;;5112825;28;20233;-75
2022/07/16 06:48:40;;;;;;;2.63;1.70;;;;;;;;;;5112374;28;20251;-75
2022/07/16 06:51:08;;;;;;;4.05;1.60;;;;;;;;;;5112455;28;20784;-75
2022/07/16 06:53:38;;;;;;;3.75;1.58;;;;;;;;;;5113277;28;20281;-75
2022/07/16 06:56:06;;;;;;;2.60;1.60;;;;;;;;;;5112998;28;20225;-75
2022/07/16 06:58:33;;;;;;;3.17;1.73;;;;;;;;;;5112866;28;20284;-75
2022/07/16 07:01:01;;;;;;;4.40;1.30;;;;;;;;;;5112869;28;20229;-75
2022/07/16 07:03:28;;;;;;;3.17;1.65;;;;;;;;;;5111319;28;20202;-75
2022/07/16 07:05:57;;;;;;;2.55;1.30;;;;;;;;;;5113120;28;20284;-76
2022/07/16 07:08:24;;;;;;;3.05;1.40;;;;;;;;;;5112696;28;20229;-75
2022/07/16 07:10:51;;;;;;;1.35;1.10;;;;;;;;;;5112438;28;20708;-76
2022/07/16 07:13:18;;;;;;;1.65;1.30;;;;;;;;;;5112421;28;20236;-76
2022/07/16 07:15:46;;;;;;;2.00;1.10;;;;;;;;;;5108559;28;20304;-73
2022/07/16 07:18:13;;;;;;;3.05;1.20;;;;;;;;;;5111165;28;20285;-75
2022/07/16 07:20:40;;;;;;;2.42;1.20;;;;;;;;;;5108087;28;20292;-74
2022/07/16 07:23:09;;;;;;;3.45;1.40;;;;;;;;;;5099376;28;20293;-74
2022/07/16 07:25:36;;;;;;;2.20;1.20;;;;;;;;;;5093719;28;20229;-75
2022/07/16 07:28:03;;;;;;;1.33;1.15;;;;;;;;;;5112349;28;20673;-75
2022/07/16 07:30:31;;;;;;;2.30;1.30;;;;;;;;;;5111944;28;20198;-75
2022/07/16 07:33:00;;;;;;;2.47;1.30;;;;;;;;;;5112050;28;20208;-75
2022/07/16 07:35:27;;;;;;;2.25;1.20;;;;;;;;;;5103733;28;20221;-74
2022/07/16 07:37:54;;;;;;;2.90;1.30;;;;;;;;;;5102382;28;20266;-75
2022/07/16 07:40:23;;;;;;;2.47;1.20;;;;;;;;;;5109687;28;20756;-75
2022/07/16 07:42:50;;;;;;;1.98;1.23;;;;;;;;;;5104997;28;20293;-75
2022/07/16 07:45:18;;;;;;;2.47;1.40;;;;;;;;;;5099038;28;20683;-75
2022/07/16 07:47:45;;;;;;;1.20;1.10;;;;;;;;;;5112009;28;20290;-75
2022/07/16 07:50:13;;;;;;;2.63;1.38;;;;;;;;;;5110975;28;20301;-75
2022/07/16 07:52:40;;;;;;;3.35;1.40;;;;;;;;;;5109514;28;20283;-75
2022/07/16 07:55:08;;;;;;;2.47;1.30;;;;;;;;;;5100746;28;20717;-75
2022/07/16 07:57:36;;;;;;;2.30;1.30;;;;;;;;;;5101001;28;20242;-74
2022/07/16 08:00:05;;;;;;;3.67;1.40;;;;;;;;;;5111226;28;20734;-75
2022/07/16 08:02:33;;;;;;;2.30;1.20;;;;;;;;;;5112118;28;20202;-75
2022/07/16 08:05:00;;;;;;;2.45;1.30;;;;;;;;;;5110414;28;20238;-75
2022/07/16 08:07:27;;;;;;;3.75;1.73;;;;;;;;;;5111722;28;20266;-75
2022/07/16 08:09:54;;;;;;;2.80;1.60;;;;;;;;;;5111348;28;20225;-75
2022/07/16 08:12:22;;;;;;;3.10;1.30;;;;;;;;;;5113107;28;20233;-75
2022/07/16 08:14:50;;;;;;;3.25;1.40;;;;;;;;;;5114087;28;20308;-75
2022/07/16 08:17:18;;;;;;;2.42;1.42;;;;;;;;;;5114222;28;20205;-74
2022/07/16 08:19:45;;;;;;;4.40;1.58;;;;;;;;;;5115293;28;20237;-75
2022/07/16 08:22:12;;;;;;;2.88;1.65;;;;;;;;;;5114068;28;20201;-75
2022/07/16 08:27:24;;;;;;;14.43;2.03;;;;;;;;;;5115733;28;20566;-74
2022/07/16 08:29:53;;;;;;;27.48;2.95;;;;;;;;;;5115067;28;20285;-76
2022/07/16 08:32:20;;;;;;;6.75;1.55;;;;;;;;;;5097763;28;20289;-74
2022/07/16 08:34:50;;;;;;;2.75;1.33;;;;;;;;;;5111921;28;20201;-77
2022/07/16 08:37:17;;;;;;;2.97;1.40;;;;;;;;;;5115404;28;20205;-75
2022/07/16 08:39:45;;;;;;;2.85;1.60;;;;;;;;;;5115013;28;20293;-75
2022/07/16 08:42:13;;;;;;;2.95;1.75;;;;;;;;;;5114751;28;20216;-78
2022/07/16 08:44:41;;;;;;;2.15;1.40;;;;;;;;;;5114775;28;20236;-75
2022/07/16 08:47:11;;;;;;;2.45;1.40;;;;;;;;;;5115030;28;20284;-75
2022/07/16 08:49:38;;;;;;;2.40;1.45;;;;;;;;;;5110598;28;20229;-75
2022/07/16 08:52:07;;;;;;;2.72;1.42;;;;;;;;;;5115098;28;20265;-75
2022/07/16 08:54:35;;;;;;;6.47;1.75;;;;;;;;;;5113612;28;20201;-72
2022/07/16 08:57:02;;;;;;;4.10;1.63;;;;;;;;;;5114501;28;20321;-76
2022/07/16 08:59:29;;;;;;;2.15;1.30;;;;;;;;;;5111282;28;20240;-77
2022/07/16 09:01:56;;;;;;;1.38;1.20;;;;;;;;;;5113156;28;20677;-75
2022/07/16 09:04:25;;;;;;;1.73;1.38;;;;;;;;;;5114516;28;20313;-75
2022/07/16 09:06:52;;;;;;;29.73;4.40;;;;;;;;;;5114910;28;20280;-78
2022/07/16 09:09:19;;;;;;;5.50;2.22;;;;;;;;;;5115555;28;20247;-76
2022/07/16 09:11:47;;;;;;;4.63;1.30;;;;;;;;;;5114149;28;20296;-73
2022/07/16 09:14:15;;;;;;;3.65;1.50;;;;;;;;;;5114405;28;20198;-76
2022/07/16 09:16:43;;;;;;;6.65;1.40;;;;;;;;;;5114819;28;20226;-76
2022/07/16 09:19:11;;;;;;;4.25;1.50;;;;;;;;;;5115867;28;20217;-79
2022/07/16 09:21:58;;;;;;;2.60;1.20;;;;;;;;;;5101469;28;20689;-77
2022/07/16 09:24:32;;;;;;;3.20;1.50;;;;;;;;;;5113749;28;20284;-78
2022/07/16 09:27:01;;;;;;;4.78;1.58;;;;;;;;;;5114676;28;20298;-77
2022/07/16 09:29:28;;;;;;;4.93;1.42;;;;;;;;;;5114659;28;20630;-77
2022/07/16 09:31:56;;;;;;;3.28;1.40;;;;;;;;;;5114549;28;20237;-78
2022/07/16 09:34:23;;;;;;;2.53;1.40;;;;;;;;;;5114408;28;20219;-78
2022/07/16 09:36:58;;;;;;;2.72;1.50;;;;;;;;;;5114565;28;20720;-78
2022/07/16 09:39:26;;;;;;;1.83;1.30;;;;;;;;;;5115186;28;20229;-78
2022/07/16 09:41:53;;;;;;;4.10;1.60;;;32.60;1.00;;;;;;5114318;28;20364;-78
2022/07/16 09:44:22;;;;;;;1.75;1.20;;;32.60;1.00;;;;;;5114514;27;20247;-77
2022/07/16 09:47:01;;;;;;;6.93;1.38;;;33.30;1.00;;;;;;5115292;28;20210;-80
2022/07/16 09:49:29;;;;;;;2.08;1.30;;;32.80;1.00;;;;;;5114406;28;20693;-79
2022/07/16 09:51:57;;;;;;;3.17;1.40;;;32.90;1.00;;;;;;5113829;28;20272;-79
2022/07/16 09:54:32;;;;;;;2.53;1.40;;;32.90;1.00;;;;;;5114124;28;20634;-80
2022/07/16 09:57:11;;;;;;;2.97;1.40;;;32.70;1.00;;;;;;5114080;28;20260;-78
2022/07/16 09:59:39;;;;;;;3.03;1.45;;;34.40;1.00;;;;;;5113501;28;20197;-79
2022/07/16 10:02:06;;;;;;;2.65;1.60;;;33.90;1.00;;;;;;5110429;28;20251;-80
2022/07/16 10:04:33;;;;;;;3.15;1.40;;;33.70;1.00;;;;;;5113198;28;20277;-79
2022/07/16 10:07:02;;;;;;;3.35;1.60;;;33.20;1.00;;;;;;5112092;28;20613;-79
2022/07/16 10:09:30;;;;;;;1.60;1.50;;;33.00;1.00;;;;;;5113651;28;20216;-79
2022/07/16 10:12:02;;;;;;;18.90;3.65;;;33.70;1.00;;;;;;5113342;28;20201;-79
2022/07/16 10:14:31;;;;;;;1.70;1.40;;;34.60;1.00;;;;;;5113263;28;20228;-79
2022/07/16 10:17:01;;;;;;;3.10;1.35;;;34.60;1.00;;;;;;5113343;28;20306;-79
2022/07/16 10:19:36;;;;;;;3.00;1.42;;;34.20;1.00;;;;;;5113266;28;20289;-78
2022/07/16 10:22:17;;;;;;;2.88;1.65;;;34.10;1.00;;;;;;5109966;28;20193;-77
2022/07/16 10:24:45;;;;;;;1.88;1.33;;;34.20;1.00;;;;;;5105951;28;20732;-78
2022/07/16 10:27:20;;;;;;;2.47;1.65;;;34.60;1.00;;;;;;5122556;27;20546;-78
2022/07/16 10:29:47;;;;;;;4.30;1.50;;;33.70;1.00;;;;;;5107014;28;20236;-77
2022/07/16 10:32:30;;;;;;;1.92;1.42;;;32.90;1.00;;;;;;5112352;28;20282;-79
2022/07/16 10:35:00;;;;;;;1.92;1.50;;;33.70;1.00;;;;;;5112165;28;20194;-75
2022/07/16 10:37:33;;;;;;;3.35;1.50;;;33.20;1.00;;;;;;5113031;28;20259;-77
2022/07/16 10:40:12;;;;;;;2.60;1.40;;;33.80;1.00;;;;;;5111305;28;20305;-77
2022/07/16 10:42:40;;;;;;;3.05;1.40;;;33.60;1.00;;;;;;5110478;28;20201;-77
2022/07/16 10:45:07;;;;;;;3.00;1.60;;;34.20;1.00;;;;;;5111603;28;20240;-77
2022/07/16 10:47:46;;;;;;;3.00;1.55;;;34.30;1.00;;;;;;5105106;28;20329;-76
2022/07/16 10:50:15;;;;;;;2.47;1.98;;;35.50;1.00;;;;;;5110036;28;20217;-79
2022/07/16 10:52:47;;;;;;;1.75;1.48;;;36.50;1.00;;;;;;5112014;28;20263;-77
2022/07/16 10:55:31;;;;;;;1.90;1.70;;;35.70;1.00;;;;;;5112715;28;20668;-78
2022/07/16 10:57:59;;;;;;;1.98;1.35;;;34.40;1.00;;;;;;5111911;28;20198;-78
2022/07/16 11:00:27;;;;;;;2.60;1.50;;;34.50;1.00;;;;;;5111824;28;20201;-74
2022/07/16 11:02:59;;;;;;;1.73;1.30;;;34.40;1.00;;;;;;5100047;28;20233;-75
2022/07/16 11:05:29;;;;;;;3.55;1.50;;;34.50;1.00;;;;;;5111760;28;20565;-74
2022/07/16 11:08:07;;;;;;;3.05;1.60;;;34.40;1.00;;;;;;5111808;28;20205;-74
2022/07/16 11:10:35;;;;;;;1.83;1.52;;;33.40;1.00;;;;;;5111342;28;20240;-74
2022/07/16 11:13:02;;;;;;;4.20;1.60;;;33.10;1.00;;;;;;5110460;28;20284;-74
2022/07/16 11:15:29;;;;;;;5.85;1.70;;;33.20;1.00;;;;;;5111710;28;20201;-74
2022/07/16 11:17:57;;;;;;;2.00;1.80;;;34.90;1.00;;;;;;5110434;28;20296;-74
2022/07/16 11:20:35;;;;;;;3.17;1.50;;;33.70;1.00;;;;;;5112389;28;20197;-74
2022/07/16 11:23:07;;;;;;;2.35;1.73;;;34.50;1.00;;;;;;5111312;28;20198;-74
2022/07/16 11:25:34;;;;;;;2.20;1.90;;;34.40;1.00;;;;;;5112242;28;20724;-74
2022/07/16 11:28:02;;;;;;;4.13;1.77;;;34.40;1.00;;;;;;5111743;28;20197;-74
2022/07/16 11:30:31;;;;;;;2.83;1.60;;;33.00;1.00;;;;;;5111236;28;20627;-74
2022/07/16 11:32:58;;;;;;;2.47;2.28;;;32.70;1.00;;;;;;5108829;28;20198;-74
2022/07/16 11:35:25;;;;;;;1.63;1.48;;;32.70;1.00;;;;;;5109347;28;20608;-75
2022/07/16 11:37:53;;;;;;;2.65;1.52;;;33.50;1.00;;;;;;5109247;28;20312;-75
2022/07/16 11:40:22;;;;;;;4.55;1.45;;;33.00;1.00;;;;;;5106606;28;20263;-74
2022/07/16 11:42:58;;;;;;;2.83;1.85;;;32.70;1.00;;;;;;5111713;28;20215;-74
2022/07/16 11:45:28;;;;;;;2.95;1.40;;;34.20;1.00;;;;;;5110874;27;20240;-74
2022/07/16 11:48:11;;;;;;;2.50;1.60;;;33.50;1.00;;;;;;5117791;27;20200;-75
2022/07/16 11:50:38;;;;;;;2.58;1.55;;;33.90;1.00;;;;;;5113114;27;20218;-75
2022/07/16 11:53:05;;;;;;;1.50;1.40;;;35.40;1.00;;;;;;5117376;27;20225;-74
2022/07/16 11:55:33;;;;;;;1.55;1.40;;;35.70;1.00;;;;;;5117852;27;20233;-74
2022/07/16 11:58:00;;;;;;;3.55;1.60;;;34.30;1.00;;;;;;5119559;27;20316;-74
2022/07/16 12:00:27;;;;;;;1.40;1.30;;;35.20;1.00;;;;;;5116762;27;20614;-74
2022/07/16 12:02:57;;;;;;;2.42;1.55;;;35.00;1.00;;;;;;5116683;27;20197;-75
2022/07/16 12:05:29;;;;;;;1.88;1.65;;;34.30;1.00;;;;;;5115736;27;20305;-74
2022/07/16 12:07:56;;;;;;;3.30;1.75;;;33.80;1.00;;;;;;5116528;27;20200;-75
2022/07/16 12:10:25;;;;;;;2.55;1.40;;;33.20;1.00;;;;;;5117298;27;20296;-74
2022/07/16 12:13:04;;;;;;;3.10;1.42;;;34.20;1.00;;;;;;5115207;27;20202;-74
2022/07/16 12:15:50;;;;;;;5.28;2.13;;;33.50;1.00;;;;;;5113483;27;20306;-74
2022/07/16 12:18:18;;;;;;;2.15;1.48;;;33.40;1.00;;;;;;5111176;27;20206;-74
2022/07/16 12:20:45;;;;;;;3.25;1.67;;;34.20;1.00;;;;;;5107300;28;20293;-75
2022/07/16 12:23:14;;;;;;;1.90;1.55;;;34.90;1.00;;;;;;5112882;28;20551;-74
2022/07/16 12:25:42;;;;;;;1.83;1.58;;;34.60;1.00;;;;;;5114297;28;20209;-74
2022/07/16 12:28:14;;;;;;;3.28;1.52;;;34.70;1.00;;;;;;5106025;28;20199;-74
2022/07/16 12:30:43;;;;;;;2.10;1.70;;;34.80;1.00;;;;;;5113951;28;20547;-74
2022/07/16 12:33:22;;;;;;;2.00;1.70;;;33.60;1.00;;;;;;5118221;28;20255;-74
2022/07/16 12:35:51;;;;;;;2.53;1.65;;;34.00;1.00;;;;;;5123765;27;20193;-74
2022/07/16 12:38:41;;;;;;;4.10;1.75;;;34.10;1.00;;;;;;5126565;27;20224;-74
2022/07/16 12:41:11;;;;;;;2.45;1.60;;;33.70;1.00;;;;;;5124744;27;20196;-74
2022/07/16 12:43:40;;;;;;;2.78;1.50;;;33.30;1.00;;;;;;5115710;28;20194;-74
2022/07/16 12:46:07;;;;;;;4.45;1.70;;;33.20;1.00;;;;;;5114465;28;20201;-74
2022/07/16 12:48:42;;;;;;;3.13;1.83;;;33.70;1.00;;;;;;5115705;28;20683;-74
2022/07/16 12:51:10;;;;;;;4.40;2.05;;;34.10;1.00;;;;;;5115229;28;20228;-75
2022/07/16 12:53:37;;;;;;;3.40;1.75;;;33.90;1.00;;;;;;5115406;28;20232;-74
2022/07/16 12:58:49;;;;;;;2.10;1.60;;;33.10;1.00;;;;;;5114636;28;20208;-74
2022/07/16 13:01:18;;;;;;;1.55;1.45;;;33.70;1.00;;;;;;5114702;28;20225;-74
2022/07/16 13:03:45;;;;;;;2.95;1.67;;;34.30;1.00;;;;;;5113176;28;20229;-74
2022/07/16 13:06:12;;;;;;;3.05;1.80;;;34.60;1.00;;;;;;5122093;27;20736;-74
2022/07/16 13:08:40;;;;;;;3.58;1.80;;;32.80;1.00;;;;;;5126227;27;20788;-74
2022/07/16 13:11:08;;;;;;;4.22;2.03;;;33.40;1.00;;;;;;5115420;27;20190;-74
2022/07/16 13:13:35;;;;;;;6.30;2.25;;;34.00;1.00;;;;;;5114288;27;20673;-74
2022/07/16 13:16:04;;;;;;;2.15;1.80;;;33.30;1.00;;;;;;5114391;28;20229;-74
2022/07/16 13:18:32;;;;;;;1.70;1.60;;;33.40;1.00;;;;;;5113318;28;20737;-74
2022/07/16 13:21:00;;;;;;;3.92;1.45;;;33.50;1.00;;;;;;5114861;28;20615;-73
2022/07/16 13:23:27;;;;;;;3.60;1.55;;;34.30;1.00;;;;;;5118122;27;20194;-75
2022/07/16 13:25:55;;;;;;;2.13;1.40;;;35.30;1.00;;;;;;5114282;28;20280;-75
2022/07/16 13:28:22;;;;;;;3.45;2.10;;;35.90;1.00;;;;;;5110545;28;20190;-74
2022/07/16 13:30:49;;;;;;;4.30;1.73;;;34.40;1.00;;;;;;5113804;28;20689;-75
2022/07/16 13:33:18;;;;;;;3.90;1.80;;;33.70;1.00;;;;;;5113192;28;20233;-75
2022/07/16 13:35:45;;;;;;;2.22;1.77;;;34.40;1.00;;;;;;5113681;28;20288;-74
2022/07/16 13:38:12;;;;;;;2.33;1.60;;;34.80;1.00;;;;;;5114289;28;20245;-74
2022/07/16 13:40:39;;;;;;;3.53;1.70;;;34.00;1.00;;;;;;5114559;27;20221;-73
2022/07/16 13:43:06;;;;;;;3.60;1.83;;;34.50;1.00;;;;;;5114322;27;20229;-74
2022/07/16 13:45:33;;;;;;;3.30;1.75;;;34.30;1.00;;;;;;5114272;28;20229;-75
2022/07/16 13:48:00;;;;;;;2.58;1.88;;;32.80;1.00;;;;;;5112860;28;20681;-74
2022/07/16 13:50:29;;;;;;;2.58;1.85;;;33.30;1.00;;;;;;5113687;28;20357;-73
2022/07/16 13:52:56;;;;;;;3.58;1.95;;;34.00;1.00;;;;;;5113519;28;20225;-74
2022/07/16 13:55:23;;;;;;;2.65;1.75;;;34.10;1.00;;;;;;5113255;28;20277;-74
2022/07/16 14:00:34;;;;;;;2.80;1.70;;;34.30;1.00;;;;;;5113425;28;20278;-74
2022/07/16 14:03:01;;;;;;;3.55;1.80;;;34.10;1.00;;;;;;5113204;28;20239;-74
2022/07/16 14:05:30;;;;;;;3.85;1.63;;;34.30;1.00;;;;;;5113618;28;20255;-74
2022/07/16 14:07:57;;;;;;;3.60;1.90;;;34.20;1.00;;;;;;5112618;28;20202;-74
2022/07/16 14:10:24;;;;;;;2.60;1.90;;;34.50;1.00;;;;;;5112324;28;20216;-74
2022/07/16 14:12:52;;;;;;;2.92;1.80;;;34.50;1.00;;;;;;5114855;27;20197;-74
2022/07/16 14:15:19;;;;;;;2.78;1.65;;;33.70;1.00;;;;;;5113189;28;20190;-74
2022/07/16 14:17:46;;;;;;;2.45;1.73;;;33.70;1.00;;;;;;5113020;28;20252;-73
2022/07/16 14:20:14;;;;;;;2.33;1.90;;;34.30;1.00;;;;;;5112516;28;20236;-73
2022/07/16 14:22:43;;;;;;;1.98;1.67;;;35.00;1.00;;;;;;5112536;28;20233;-74